Gearhart, Oregon
Current Conditions -  °F | °C
As of 12:55 PM on Sunday 23 Nov 2014 (Local Time) from KAST Reporting Station
Overcast Overcast  
Wind Chill: 55°   Ceiling: 5000
Heat Index: 55°   Visibility: 10mi
Dew Point: 49°   Wind: 10mph
Humidity: 80%   Direction: 270°W
Pressure: 30.22"   Gusts: NA
Location:  45.8905°N, 123.667°W
Report Text: KAST 232055Z AUTO 27009KT 10SM OVC050 13/09 A3022 RMK AO2 LTG DSNT S SLP233 60002 T01280094 51020
Loading
Personal Weather Stations






























Interactive Weather Map New forecast layout! Learn more

10-Day Weather Forecast

Advertisements
Track Severe Weather on mobile